Time;durP1;ratioP1;P1;durP2;ratioP2;P2;SDS_P1;SDS_P2;PMS_P1;PMS_P2;Temp;Humidity;BMP_temperature;BMP_pressure;BME280_temperature;BME280_humidity;BME280_pressure;Samples;Min_cycle;Max_cycle;Signal;HPM_P1;HPM_P2
2023/12/28 00:00:15;;;;;;;5.43;4.93;;;;;;;;;;5110970;27;20358;-74
2023/12/28 00:02:41;;;;;;;4.65;4.25;;;;;;;;;;5128848;27;20121;-74
2023/12/28 00:05:07;;;;;;;4.28;3.97;;;;;;;;;;5128228;27;20114;-74
2023/12/28 00:07:33;;;;;;;4.40;3.97;;;;;;;;;;5128807;27;20050;-74
2023/12/28 00:09:59;;;;;;;6.85;4.25;;;;;;;;;;5114116;27;20110;-74
2023/12/28 00:12:25;;;;;;;4.47;4.07;;;;;;;;;;5142540;27;20511;-73
2023/12/28 00:14:52;;;;;;;4.88;4.43;;;;;;;;;;5124343;28;20065;-74
2023/12/28 00:17:18;;;;;;;4.55;4.18;;;;;;;;;;5111044;28;20485;-74
2023/12/28 00:19:44;;;;;;;4.53;4.13;;;;;;;;;;5129111;27;20035;-74
2023/12/28 00:22:11;;;;;;;5.22;4.75;;;;;;;;;;5111131;28;20054;-74
2023/12/28 00:24:37;;;;;;;2.58;2.47;;;;;;;;;;5110828;27;20031;-74
2023/12/28 00:27:03;;;;;;;4.78;4.38;;;;;;;;;;5128248;27;20024;-74
2023/12/28 00:29:29;;;;;;;3.97;3.67;;;;;;;;;;5128249;27;20041;-73
2023/12/28 00:31:55;;;;;;;6.47;5.13;;;;;;;;;;5111010;27;20039;-74
2023/12/28 00:34:22;;;;;;;4.68;4.22;;;;;;;;;;5109352;28;20095;-73
2023/12/28 00:36:49;;;;;;;5.35;4.88;;;;;;;;;;5127656;27;20421;-73
2023/12/28 00:39:15;;;;;;;4.78;4.38;;;;;;;;;;5113094;27;20402;-74
2023/12/28 00:41:42;;;;;;;4.35;4.05;;;;;;;;;;5114496;27;20631;-74
2023/12/28 00:44:10;;;;;;;4.60;4.20;;;;;;;;;;5115610;27;20054;-74
2023/12/28 00:46:36;;;;;;;3.58;3.38;;;;;;;;;;5114107;27;20069;-74
2023/12/28 00:49:04;;;;;;;3.75;3.42;;;;;;;;;;5132623;27;20475;-74
2023/12/28 00:51:30;;;;;;;2.97;2.78;;;;;;;;;;5132585;27;20035;-74
2023/12/28 00:53:56;;;;;;;3.38;3.13;;;;;;;;;;5114353;27;20034;-74
2023/12/28 00:56:22;;;;;;;3.17;2.97;;;;;;;;;;5133716;27;20035;-74
2023/12/28 00:58:48;;;;;;;4.50;4.10;;;;;;;;;;5115107;27;20027;-74
2023/12/28 01:01:15;;;;;;;5.43;3.72;;;;;;;;;;5133093;27;20035;-74
2023/12/28 01:03:40;;;;;;;2.80;2.60;;;;;;;;;;5099024;27;20031;-74
2023/12/28 01:06:07;;;;;;;4.22;3.92;;;;;;;;;;5134202;27;20584;-73
2023/12/28 01:08:35;;;;;;;3.28;3.08;;;;;;;;;;5136410;27;20031;-73
2023/12/28 01:11:01;;;;;;;2.85;2.65;;;;;;;;;;5141127;27;20549;-74
2023/12/28 01:13:27;;;;;;;4.40;4.00;;;;;;;;;;5123689;27;20058;-74
2023/12/28 01:15:54;;;;;;;2.65;2.50;;;;;;;;;;5102858;28;20033;-74
2023/12/28 01:18:20;;;;;;;2.17;2.10;;;;;;;;;;5097806;27;20047;-72
2023/12/28 01:20:46;;;;;;;3.40;3.17;;;;;;;;;;5140933;27;20775;-73
2023/12/28 01:23:12;;;;;;;2.83;2.63;;;;;;;;;;5100161;27;20569;-73
2023/12/28 01:25:38;;;;;;;3.15;2.85;;;;;;;;;;5132448;27;20147;-74
2023/12/28 01:28:04;;;;;;;3.67;3.38;;;;;;;;;;5133041;27;20058;-73
2023/12/28 01:30:30;;;;;;;3.80;3.50;;;;;;;;;;5097926;27;20498;-73
2023/12/28 01:32:56;;;;;;;3.25;2.92;;;;;;;;;;5113145;27;20046;-73
2023/12/28 01:35:23;;;;;;;3.63;3.33;;;;;;;;;;5131781;27;20070;-74
2023/12/28 01:37:49;;;;;;;3.35;3.13;;;;;;;;;;5132139;27;20063;-73
2023/12/28 01:40:15;;;;;;;3.53;3.22;;;;;;;;;;5129469;27;20466;-73
2023/12/28 01:42:41;;;;;;;2.22;2.13;;;;;;;;;;5131055;27;20039;-73
2023/12/28 01:45:08;;;;;;;4.05;3.75;;;;;;;;;;5131375;27;20027;-73
2023/12/28 01:47:34;;;;;;;3.58;3.28;;;;;;;;;;5112661;27;20037;-74
2023/12/28 01:50:00;;;;;;;3.90;3.60;;;;;;;;;;5094151;27;20110;-74
2023/12/28 01:52:27;;;;;;;3.15;2.95;;;;;;;;;;5130984;27;20035;-74
2023/12/28 01:54:53;;;;;;;2.92;2.83;;;;;;;;;;5112740;27;20023;-74
2023/12/28 01:57:19;;;;;;;3.92;3.55;;;;;;;;;;5130707;27;20126;-74
2023/12/28 01:59:45;;;;;;;4.03;3.63;;;;;;;;;;5129595;27;20046;-75
2023/12/28 02:02:11;;;;;;;3.13;2.92;;;;;;;;;;5096595;27;20452;-74
2023/12/28 02:04:37;;;;;;;2.88;2.78;;;;;;;;;;5130903;27;20738;-74
2023/12/28 02:07:03;;;;;;;4.22;3.92;;;;;;;;;;5130885;27;20118;-75
2023/12/28 02:09:28;;;;;;;3.63;3.33;;;;;;;;;;5112618;27;20040;-74
2023/12/28 02:11:55;;;;;;;4.10;3.20;;;;;;;;;;5112834;27;20023;-74
2023/12/28 02:14:21;;;;;;;3.50;3.25;;;;;;;;;;5105095;27;20043;-73
2023/12/28 02:16:59;;;;;;;2.92;2.72;;;;;;;;;;5096247;27;20452;-73
2023/12/28 02:19:37;;;;;;;3.90;3.60;;;;;;;;;;5094831;27;20027;-73
2023/12/28 02:22:03;;;;;;;3.15;2.40;;;;;;;;;;5089824;27;20093;-73
2023/12/28 02:24:29;;;;;;;1.63;1.63;;;;;;;;;;5130400;27;20023;-74
2023/12/28 02:26:55;;;;;;;3.47;3.17;;;;;;;;;;5112783;27;20042;-76
2023/12/28 02:29:21;;;;;;;4.47;3.97;;;;;;;;;;5095925;27;20039;-74
2023/12/28 02:31:49;;;;;;;3.97;3.55;;;;;;;;;;5111074;27;20514;-74
2023/12/28 02:34:27;;;;;;;3.58;3.30;;;;;;;;;;5078028;27;20035;-74
2023/12/28 02:36:54;;;;;;;2.83;2.63;;;;;;;;;;5104228;27;20042;-74
2023/12/28 02:39:20;;;;;;;4.18;3.78;;;;;;;;;;5129318;27;20043;-74
2023/12/28 02:41:45;;;;;;;3.40;3.10;;;;;;;;;;5111561;27;20035;-74
2023/12/28 02:44:12;;;;;;;6.57;4.00;;;;;;;;;;5095527;27;20038;-74
2023/12/28 02:46:39;;;;;;;4.00;3.70;;;;;;;;;;5095493;27;20479;-74
2023/12/28 02:49:05;;;;;;;4.35;3.95;;;;;;;;;;5094859;27;20042;-73
2023/12/28 02:51:32;;;;;;;4.43;4.03;;;;;;;;;;5129906;27;20514;-73
2023/12/28 02:53:58;;;;;;;4.50;4.15;;;;;;;;;;5130189;27;20027;-73
2023/12/28 02:56:24;;;;;;;4.60;4.18;;;;;;;;;;5111858;27;20039;-74
2023/12/28 02:58:50;;;;;;;4.03;3.72;;;;;;;;;;5131201;27;20027;-74
2023/12/28 03:01:16;;;;;;;3.88;3.58;;;;;;;;;;5111564;27;20027;-74
2023/12/28 03:03:42;;;;;;;2.63;2.47;;;;;;;;;;5094658;27;20792;-73
2023/12/28 03:06:08;;;;;;;4.45;4.15;;;;;;;;;;5131259;27;20094;-74
2023/12/28 03:08:34;;;;;;;4.40;4.10;;;;;;;;;;5123215;27;20533;-74
2023/12/28 03:11:00;;;;;;;4.80;4.40;;;;;;;;;;5113568;27;20031;-74
2023/12/28 03:13:26;;;;;;;4.25;3.95;;;;;;;;;;5110711;27;20034;-71
2023/12/28 03:15:52;;;;;;;4.18;3.85;;;;;;;;;;5087512;27;20047;-73
2023/12/28 03:18:18;;;;;;;3.50;3.28;;;;;;;;;;5129670;27;20091;-74
2023/12/28 03:20:44;;;;;;;4.28;3.97;;;;;;;;;;5129066;27;20461;-73
2023/12/28 03:23:11;;;;;;;4.97;4.30;;;;;;;;;;5130726;27;20063;-73
2023/12/28 03:25:37;;;;;;;4.38;3.97;;;;;;;;;;5110565;27;20023;-74
2023/12/28 03:28:03;;;;;;;4.90;4.43;;;;;;;;;;5077176;27;20559;-73
2023/12/28 03:30:29;;;;;;;3.92;3.63;;;;;;;;;;5109415;27;20027;-74
2023/12/28 03:32:55;;;;;;;3.72;3.42;;;;;;;;;;5127820;27;20153;-74
2023/12/28 03:35:21;;;;;;;2.78;2.67;;;;;;;;;;5110745;27;20096;-74
2023/12/28 03:37:47;;;;;;;4.22;3.95;;;;;;;;;;5111093;27;20039;-74
2023/12/28 03:40:14;;;;;;;3.90;3.60;;;;;;;;;;5109030;27;20031;-74
2023/12/28 03:42:39;;;;;;;7.03;4.05;;;;;;;;;;5092376;27;20042;-75
2023/12/28 03:45:06;;;;;;;4.20;3.88;;;;;;;;;;5110825;27;20027;-74
2023/12/28 03:47:32;;;;;;;5.47;4.00;;;;;;;;;;5128283;27;20031;-73
2023/12/28 03:49:58;;;;;;;4.53;4.18;;;;;;;;;;5129672;27;20184;-73
2023/12/28 03:52:29;;;;;;;4.07;3.70;;;;;;;;;;5092169;27;20134;-73
2023/12/28 03:54:56;;;;;;;4.10;3.80;;;;;;;;;;5120480;27;20148;-74
2023/12/28 03:57:22;;;;;;;4.57;4.28;;;;;;;;;;5109985;27;20587;-74
2023/12/28 03:59:48;;;;;;;2.67;2.45;;;;;;;;;;5119996;27;20063;-74
2023/12/28 04:02:14;;;;;;;3.58;3.38;;;;;;;;;;5093849;27;20122;-74
2023/12/28 04:04:40;;;;;;;4.00;3.67;;;;;;;;;;5128207;27;20774;-74
2023/12/28 04:07:07;;;;;;;4.78;4.38;;;;;;;;;;5128197;27;20031;-73
2023/12/28 04:09:33;;;;;;;4.20;3.90;;;;;;;;;;5106758;27;20027;-74
2023/12/28 04:11:59;;;;;;;5.22;4.82;;;;;;;;;;5092672;27;20533;-74
2023/12/28 04:14:26;;;;;;;2.88;2.67;;;;;;;;;;5110550;27;20035;-74
2023/12/28 04:16:51;;;;;;;4.32;4.00;;;;;;;;;;5129621;27;20035;-74
2023/12/28 04:19:17;;;;;;;8.63;4.30;;;;;;;;;;5126993;27;20034;-73
2023/12/28 04:21:44;;;;;;;3.40;3.20;;;;;;;;;;5127546;27;20168;-73
2023/12/28 04:24:10;;;;;;;6.00;3.97;;;;;;;;;;5110442;28;20030;-73
2023/12/28 04:26:36;;;;;;;4.70;4.22;;;;;;;;;;5128647;27;20556;-74
2023/12/28 04:29:02;;;;;;;7.55;3.65;;;;;;;;;;5094407;27;20030;-74
2023/12/28 04:31:28;;;;;;;3.80;3.60;;;;;;;;;;5108570;27;20083;-74
2023/12/28 04:33:54;;;;;;;2.80;2.60;;;;;;;;;;5109898;27;20574;-74
2023/12/28 04:36:20;;;;;;;3.83;3.53;;;;;;;;;;5109166;27;20176;-74
2023/12/28 04:38:46;;;;;;;3.22;2.92;;;;;;;;;;5109620;28;20084;-74
2023/12/28 04:41:13;;;;;;;4.20;3.90;;;;;;;;;;5110907;27;20023;-75
2023/12/28 04:43:40;;;;;;;4.20;3.90;;;;;;;;;;5109624;27;20632;-74
2023/12/28 04:46:06;;;;;;;4.57;4.18;;;;;;;;;;5126719;27;20035;-75
2023/12/28 04:48:32;;;;;;;4.28;3.38;;;;;;;;;;5127995;27;20042;-74
2023/12/28 04:50:58;;;;;;;5.28;4.88;;;;;;;;;;5093455;27;20117;-73
2023/12/28 04:53:24;;;;;;;3.42;3.05;;;;;;;;;;5109844;27;20059;-73
2023/12/28 04:55:50;;;;;;;5.80;5.30;;;;;;;;;;5110465;28;20067;-73
2023/12/28 04:58:16;;;;;;;3.58;3.38;;;;;;;;;;5126316;27;20048;-74
2023/12/28 05:00:43;;;;;;;4.95;4.30;;;;;;;;;;5078348;27;20031;-74
2023/12/28 05:03:09;;;;;;;4.45;4.15;;;;;;;;;;5114981;27;20130;-74
2023/12/28 05:05:35;;;;;;;3.95;2.40;;;;;;;;;;5114311;27;20019;-74
2023/12/28 05:08:01;;;;;;;4.82;4.43;;;;;;;;;;5128927;27;20463;-73
2023/12/28 05:10:27;;;;;;;6.57;4.32;;;;;;;;;;5095227;28;21115;-73
2023/12/28 05:12:53;;;;;;;4.13;3.83;;;;;;;;;;5124431;27;20039;-74
2023/12/28 05:15:19;;;;;;;4.40;4.10;;;;;;;;;;5126767;27;20058;-74
2023/12/28 05:17:45;;;;;;;4.13;3.83;;;;;;;;;;5109405;28;20383;-74
2023/12/28 05:20:11;;;;;;;7.03;4.05;;;;;;;;;;5123915;27;20035;-74
2023/12/28 05:22:37;;;;;;;3.83;3.55;;;;;;;;;;5095622;27;20032;-74
2023/12/28 05:25:04;;;;;;;3.00;2.80;;;;;;;;;;5113211;27;20502;-74
2023/12/28 05:27:30;;;;;;;4.30;3.92;;;;;;;;;;5130524;27;20019;-74
2023/12/28 05:29:56;;;;;;;3.17;2.97;;;;;;;;;;5130759;27;20039;-74
2023/12/28 05:32:22;;;;;;;2.80;2.60;;;;;;;;;;5118121;27;20480;-70
2023/12/28 05:34:49;;;;;;;4.43;3.20;;;;;;;;;;5122805;27;20039;-71
2023/12/28 05:37:15;;;;;;;6.10;4.05;;;;;;;;;;5129452;27;20061;-71
2023/12/28 05:39:42;;;;;;;3.63;3.33;;;;;;;;;;5114274;27;20031;-70
2023/12/28 05:42:07;;;;;;;2.80;2.60;;;;;;;;;;5129587;27;20092;-70
2023/12/28 05:44:33;;;;;;;1.95;1.85;;;;;;;;;;5129811;27;20058;-69
2023/12/28 05:46:59;;;;;;;2.00;1.90;;;;;;;;;;5130637;27;20050;-70
2023/12/28 05:49:25;;;;;;;3.13;2.92;;;;;;;;;;5130482;27;20035;-70
2023/12/28 05:51:51;;;;;;;2.42;2.33;;;;;;;;;;5129534;27;20038;-69
2023/12/28 05:54:17;;;;;;;3.40;3.20;;;;;;;;;;5100510;27;20031;-70
2023/12/28 05:56:43;;;;;;;5.40;4.10;;;;;;;;;;5130128;27;20126;-70
2023/12/28 05:59:09;;;;;;;3.00;2.80;;;;;;;;;;5130631;27;20038;-70
2023/12/28 06:01:41;;;;;;;3.25;2.80;;;;;;;;;;5116977;27;20420;-70
2023/12/28 06:04:07;;;;;;;3.00;2.90;;;;;;;;;;5112554;27;20177;-70
2023/12/28 06:06:34;;;;;;;2.30;2.20;;;;;;;;;;5094364;27;20135;-69
2023/12/28 06:09:00;;;;;;;2.20;2.10;;;;;;;;;;5112293;27;20020;-69
2023/12/28 06:11:25;;;;;;;2.78;2.67;;;;;;;;;;5122000;27;20038;-70
2023/12/28 06:13:51;;;;;;;3.10;2.90;;;;;;;;;;5129327;27;20467;-68
2023/12/28 06:16:17;;;;;;;2.35;2.25;;;;;;;;;;5127403;27;20049;-69
2023/12/28 06:18:43;;;;;;;2.72;2.63;;;;;;;;;;5125743;27;20027;-67
2023/12/28 06:21:09;;;;;;;2.83;2.60;;;;;;;;;;5122492;27;20035;-69
2023/12/28 06:23:35;;;;;;;3.70;3.50;;;;;;;;;;5128538;27;20384;-69
2023/12/28 06:26:05;;;;;;;2.28;2.17;;;;;;;;;;5109218;27;20518;-70
2023/12/28 06:28:31;;;;;;;5.78;3.22;;;;;;;;;;5129014;27;20027;-69
2023/12/28 06:31:00;;;;;;;5.53;2.90;;;;;;;;;;5110028;27;20106;-70
2023/12/28 06:33:28;;;;;;;2.72;2.63;;;;;;;;;;5126425;27;20111;-68
2023/12/28 06:35:54;;;;;;;2.47;2.38;;;;;;;;;;5127058;27;20133;-69
2023/12/28 06:38:20;;;;;;;4.50;2.92;;;;;;;;;;5112328;27;20167;-70
2023/12/28 06:40:46;;;;;;;2.75;2.65;;;;;;;;;;5127378;27;20527;-69
2023/12/28 06:43:12;;;;;;;2.90;2.70;;;;;;;;;;5129269;27;20035;-70
2023/12/28 06:45:48;;;;;;;;;;;;;;;;;;;;;
2023/12/28 06:48:14;;;;;;;3.58;3.00;;;;;;;;;;5129924;27;20113;-69
2023/12/28 06:50:40;;;;;;;2.83;2.70;;;;;;;;;;5108460;27;20513;-69
2023/12/28 06:53:06;;;;;;;3.03;2.83;;;;;;;;;;5128202;27;20514;-69
2023/12/28 06:55:32;;;;;;;3.40;2.95;;;;;;;;;;5126099;27;20045;-72
2023/12/28 06:57:58;;;;;;;2.17;2.08;;;;;;;;;;5111663;27;20019;-72
2023/12/28 07:00:24;;;;;;;3.20;3.00;;;;;;;;;;5129529;27;20046;-69
2023/12/28 07:02:50;;;;;;;2.72;2.63;;;;;;;;;;5127625;27;20038;-71
2023/12/28 07:05:16;;;;;;;2.92;2.72;;;;;;;;;;5125118;27;20030;-70
2023/12/28 07:07:41;;;;;;;2.45;2.35;;;;;;;;;;5099047;27;20025;-69
2023/12/28 07:10:07;;;;;;;3.05;2.80;;;;;;;;;;5120835;27;20072;-70
2023/12/28 07:12:33;;;;;;;3.35;3.15;;;;;;;;;;5113023;27;20083;-70
2023/12/28 07:14:59;;;;;;;3.05;2.85;;;;;;;;;;5127713;27;20036;-70
2023/12/28 07:17:25;;;;;;;4.10;3.90;;;;;;;;;;5124673;27;20134;-70
2023/12/28 07:19:51;;;;;;;4.93;4.00;;;;;;;;;;5119183;27;20036;-70
2023/12/28 07:22:17;;;;;;;2.50;2.40;;;;;;;;;;5099558;27;20038;-70
2023/12/28 07:24:43;;;;;;;4.75;4.15;;;;;;;;;;5120478;27;20360;-70
2023/12/28 07:27:09;;;;;;;4.90;3.58;;;;;;;;;;5123091;27;20043;-70
2023/12/28 07:29:35;;;;;;;2.60;2.50;;;;;;;;;;5120334;27;20038;-70
2023/12/28 07:32:01;;;;;;;3.25;3.13;;;;;;;;;;5100642;27;20205;-70
2023/12/28 07:34:27;;;;;;;3.83;3.15;;;;;;;;;;5098398;27;20042;-70
2023/12/28 07:36:53;;;;;;;3.05;2.95;;;;;;;;;;5105087;27;20089;-70
2023/12/28 07:39:20;;;;;;;3.15;2.95;;;;;;;;;;5106021;27;20123;-71
2023/12/28 07:41:46;;;;;;;3.25;3.05;;;;;;;;;;5117235;27;20072;-70
2023/12/28 07:44:12;;;;;;;3.65;3.35;;;;;;;;;;5117863;27;20061;-69
2023/12/28 07:46:37;;;;;;;2.97;2.78;;;;;;;;;;5115899;27;20881;-70
2023/12/28 07:49:03;;;;;;;7.25;3.90;;;;;;;;;;5105208;27;20114;-68
2023/12/28 07:51:29;;;;;;;5.00;4.50;;;;;;;;;;5099592;27;20499;-70
2023/12/28 07:53:55;;;;;;;4.47;4.03;;;;;;;;;;5101964;27;20039;-70
2023/12/28 07:56:21;;;;;;;5.65;3.72;;;;;;;;;;5116556;27;20054;-69
2023/12/28 07:58:47;;;;;;;3.47;3.17;;;;;;;;;;5122569;27;20053;-70
2023/12/28 08:01:13;;;;;;;2.60;2.40;;;;;;;;;;5118393;27;20039;-70
2023/12/28 08:03:39;;;;;;;2.90;2.75;;;;;;;;;;5129360;27;20088;-70
2023/12/28 08:06:05;;;;;;;2.92;2.67;;;;;;;;;;5111076;27;20042;-68
2023/12/28 08:08:31;;;;;;;3.47;3.28;;;;;;;;;;5112872;27;20041;-70
2023/12/28 08:10:57;;;;;;;3.78;3.10;;;;;;;;;;5129039;27;20073;-70
2023/12/28 08:13:23;;;;;;;3.90;3.42;;;;;;;;;;5124399;27;20466;-71
2023/12/28 08:15:49;;;;;;;3.42;3.13;;;;;;;;;;5119469;27;20049;-70
2023/12/28 08:18:15;;;;;;;5.32;4.93;;;;;;;;;;5115868;27;20061;-70
2023/12/28 08:20:41;;;;;;;3.90;3.60;;;;;;;;;;5098458;28;20063;-69
2023/12/28 08:23:07;;;;;;;3.15;2.95;;;;;;;;;;5122521;27;20030;-70
2023/12/28 08:25:33;;;;;;;8.45;3.30;;;;;;;;;;5114524;27;20036;-69
2023/12/28 08:27:58;;;;;;;5.38;3.70;;;;;;;;;;5110762;27;20069;-68
2023/12/28 08:30:24;;;;;;;3.85;3.45;;;;;;;;;;5108097;28;20558;-68
2023/12/28 08:32:50;;;;;;;3.33;3.13;;;;;;;;;;5127077;27;20100;-69
2023/12/28 08:35:16;;;;;;;2.72;2.58;;;;;;;;;;5128660;27;20030;-69
2023/12/28 08:37:42;;;;;;;4.95;4.63;;;;;;;;;;5109904;27;20067;-69
2023/12/28 08:40:08;;;;;;;3.92;3.15;;;;;;;;;;5107544;27;20046;-70
2023/12/28 08:42:34;;;;;;;3.15;2.95;;;;;;;;;;5104494;28;20410;-69
2023/12/28 08:45:00;;;;;;;2.70;2.50;;;;;;;;;;5111509;28;20035;-69
2023/12/28 08:47:26;;;;;;;2.58;2.47;;;;;;;;;;5111332;28;20398;-69
2023/12/28 08:49:52;;;;;;;3.40;3.17;;;;;;;;;;5129756;28;20045;-70
2023/12/28 08:52:18;;;;;;;3.65;3.40;;;;;;;;;;5123559;28;20024;-68
2023/12/28 08:54:44;;;;;;;2.63;2.42;;;;;;;;;;5101349;28;20106;-70
2023/12/28 08:57:10;;;;;;;3.17;2.95;;;;;;;;;;5107162;28;20050;-68
2023/12/28 08:59:36;;;;;;;3.33;3.13;;;;;;;;;;5104374;28;20024;-68
2023/12/28 09:02:02;;;;;;;3.10;2.90;;;;;;;;;;5124726;27;20038;-69
2023/12/28 09:04:28;;;;;;;3.90;3.60;;;;;;;;;;5107162;27;20035;-69
2023/12/28 09:06:54;;;;;;;2.42;2.33;;;;;;;;;;5130099;27;20035;-71
2023/12/28 09:09:20;;;;;;;2.72;2.53;;;;;;;;;;5132671;27;20031;-70
2023/12/28 09:11:46;;;;;;;2.58;2.40;;;;;;;;;;5122634;27;20035;-71
2023/12/28 09:14:12;;;;;;;2.70;2.50;;;;;;;;;;5132815;27;20046;-71
2023/12/28 09:16:39;;;;;;;2.22;2.13;;;;;;;;;;5096580;27;20652;-71
2023/12/28 09:19:04;;;;;;;2.67;2.58;;;;;;;;;;5132953;27;20035;-70
2023/12/28 09:21:30;;;;;;;3.67;3.38;;;;;;;;;;5132329;27;20035;-70
2023/12/28 09:23:56;;;;;;;2.58;2.42;;;;;;;;;;5131790;27;20046;-70
2023/12/28 09:26:22;;;;;;;3.20;3.00;;;;;;;;;;5132410;27;20042;-70
2023/12/28 09:28:48;;;;;;;3.50;3.30;;;;;;;;;;5120092;27;20085;-70
2023/12/28 09:31:14;;;;;;;3.05;2.92;;;;;;;;;;5131858;27;20476;-71
2023/12/28 09:33:40;;;;;;;3.08;2.88;;;;;;;;;;5115398;27;20035;-71
2023/12/28 09:36:06;;;;;;;2.53;2.42;;;;;;;;;;5098369;27;20096;-71
2023/12/28 09:38:32;;;;;;;2.50;2.40;;;;;;;;;;5113723;27;20083;-70
2023/12/28 09:40:58;;;;;;;4.47;3.15;;;;;;;;;;5129014;27;20039;-71
2023/12/28 09:43:27;;;;;;;3.05;2.88;;;;;;;;;;5076418;28;20067;-72
2023/12/28 09:45:53;;;;;;;5.75;3.35;;;;;;;;;;5115007;27;20525;-71
2023/12/28 09:48:20;;;;;;;3.38;3.17;;;;;;;;;;5112799;27;20031;-70
2023/12/28 09:50:55;;;;;;;4.45;4.05;;;;;;;;;;5113580;27;20035;-70
2023/12/28 09:53:24;;;;;;;7.00;3.72;;;;;;;;;;5114199;27;20046;-71
2023/12/28 09:55:53;;;;;;;3.40;3.13;;;;;;;;;;5113534;27;20066;-70
2023/12/28 09:58:20;;;;;;;4.35;3.63;;;;;;;;;;5113497;27;20043;-71
2023/12/28 10:00:46;;;;;;;4.90;4.50;;;;;;;;;;5113696;27;20062;-70
2023/12/28 10:03:13;;;;;;;4.15;3.83;;;;;;;;;;5113959;27;20034;-71
2023/12/28 10:05:42;;;;;;;5.75;3.83;;;;;;;;;;5132313;27;20494;-71
2023/12/28 10:08:08;;;;;;;9.57;3.10;;;;;;;;;;5133367;27;20502;-70
2023/12/28 10:10:34;;;;;;;3.95;3.70;;;;;;;;;;5113382;27;20031;-70
2023/12/28 10:13:00;;;;;;;7.10;2.80;;;;;;;;;;5096437;27;20035;-71
2023/12/28 10:15:26;;;;;;;3.08;2.83;;;;;;;;;;5096366;27;20035;-71
2023/12/28 10:17:52;;;;;;;5.18;4.75;;;;;;;;;;5131870;27;20037;-71
2023/12/28 10:20:18;;;;;;;5.13;4.72;;;;;;;;;;5113526;27;20109;-70
2023/12/28 10:22:44;;;;;;;3.83;3.10;;;;;;;;;;5095643;27;20546;-70
2023/12/28 10:25:11;;;;;;;5.20;4.80;;;;;;;;;;5130781;27;20038;-70
2023/12/28 10:27:42;;;;;;;4.63;4.30;;;;;;;;;;5130662;27;20031;-70
2023/12/28 10:30:08;;;;;;;3.65;3.45;;;;;;;;;;5131958;27;20079;-68
2023/12/28 10:32:34;;;;;;;4.60;4.20;;;;;;;;;;5131378;27;20086;-70
2023/12/28 10:35:00;;;;;;;2.67;2.47;;;;;;;;;;5113620;27;20065;-70
2023/12/28 10:37:27;;;;;;;3.58;3.38;;;;;;;;;;5131726;27;20047;-71
2023/12/28 10:39:53;;;;;;;3.92;3.63;;;;;;;;;;5113448;27;20053;-71
2023/12/28 10:42:31;;;;;;;3.35;3.15;;;;;;;;;;5113208;27;20422;-70
2023/12/28 10:45:16;;;;;;;3.60;3.40;;;;;;;;;;5113041;27;20035;-70
2023/12/28 10:47:43;;;;;;;3.88;3.63;;;;;;;;;;5095417;27;20545;-71
2023/12/28 10:50:10;;;;;;;3.30;3.10;;;;;;;;;;5095967;27;20027;-72
2023/12/28 10:52:36;;;;;;;3.35;3.15;;;;;;;;;;5131091;27;20091;-70
2023/12/28 10:55:03;;;;;;;4.07;3.78;;;;;;;;;;5131279;27;20027;-71
2023/12/28 10:57:32;;;;;;;3.35;3.15;;;;;;;;;;5131186;27;20093;-69
2023/12/28 10:59:58;;;;;;;3.80;3.50;;;;;;;;;;5131700;27;20050;-71
2023/12/28 11:02:25;;;;;;;3.30;3.10;;;;;;;;;;5131224;27;20032;-70
2023/12/28 11:04:52;;;;;;;3.65;3.40;;;;;;;;;;5111190;27;20230;-70
2023/12/28 11:07:18;;;;;;;3.15;2.92;;;;;;;;;;5110724;27;20030;-68
2023/12/28 11:09:44;;;;;;;3.25;3.05;;;;;;;;;;5130773;27;20039;-71
2023/12/28 11:12:10;;;;;;;3.35;3.15;;;;;;;;;;5121920;27;20031;-70
2023/12/28 11:14:37;;;;;;;3.20;3.00;;;;;;;;;;5130785;27;20108;-70
2023/12/28 11:17:03;;;;;;;2.78;2.58;;;;;;;;;;5092581;28;20144;-71
2023/12/28 11:19:29;;;;;;;5.72;3.65;;;;;;;;;;5120109;27;20115;-70
2023/12/28 11:21:56;;;;;;;3.95;3.65;;;;;;;;;;5111558;27;20434;-71
2023/12/28 11:24:22;;;;;;;4.00;3.70;;;;;;;;;;5119262;27;20491;-71
2023/12/28 11:26:55;;;;;;;7.07;4.50;;;;;;;;;;5110386;28;20109;-71
2023/12/28 11:29:21;;;;;;;3.63;3.42;;;;;;;;;;5109047;28;20122;-69
2023/12/28 11:31:53;;;;;;;3.75;3.45;;;;;;;;;;5095889;28;20108;-71
2023/12/28 11:34:28;;;;;;;5.68;3.42;;;;;;;;;;5110415;28;20063;-71
2023/12/28 11:36:55;;;;;;;2.33;2.10;;;;;;;;;;5109585;27;20051;-71
2023/12/28 11:39:35;;;;;;;3.33;3.03;;;;;;;;;;5112177;27;20027;-70
2023/12/28 11:42:08;;;;;;;3.95;3.65;;;;;;;;;;5128449;27;20035;-70
2023/12/28 11:44:38;;;;;;;2.35;2.25;;;;;;;;;;5112585;27;20111;-70
2023/12/28 11:47:31;;;;;;;2.70;2.60;;;;;;;;;;5111811;27;20031;-71
2023/12/28 11:50:06;;;;;;;3.83;3.53;;;;;;;;;;5108083;27;20042;-69
2023/12/28 11:52:32;;;;;;;2.40;2.30;;;;;;;;;;5133339;27;20088;-69
2023/12/28 11:54:59;;;;;;;3.13;2.92;;;;;;;;;;5132332;27;20039;-70
2023/12/28 11:57:25;;;;;;;3.47;3.22;;;;;;;;;;5074510;28;20522;-72
2023/12/28 11:59:58;;;;;;;2.60;2.50;;;;;;;;;;5112101;27;20036;-71
2023/12/28 12:02:24;;;;;;;3.28;3.08;;;;;;;;;;5129610;27;20578;-70
2023/12/28 12:04:50;;;;;;;3.03;2.83;;;;;;;;;;5129074;27;20063;-71
2023/12/28 12:07:16;;;;;;;2.30;2.20;;;;;;;;;;5124755;27;20069;-70
2023/12/28 12:09:42;;;;;;;3.30;3.10;;;;;;;;;;5130466;27;20069;-72
2023/12/28 12:12:08;;;;;;;3.03;2.83;;;;;;;;;;5112163;27;20031;-70
2023/12/28 12:14:35;;;;;;;3.00;2.80;;;;;;;;;;5129922;27;20043;-71
2023/12/28 12:17:01;;;;;;;2.72;2.63;;;;;;;;;;5077080;27;20545;-70
2023/12/28 12:19:27;;;;;;;3.10;2.90;;;;;;;;;;5128237;27;20528;-70
2023/12/28 12:21:53;;;;;;;3.47;3.28;;;;;;;;;;5106504;27;20031;-70
2023/12/28 12:24:19;;;;;;;2.95;2.85;;;;;;;;;;5129226;27;20035;-71
2023/12/28 12:26:46;;;;;;;4.18;3.88;;;;;;;;;;5129142;27;20518;-70
2023/12/28 12:29:12;;;;;;;2.33;2.22;;;;;;;;;;5129681;28;20039;-69
2023/12/28 12:31:39;;;;;;;2.60;2.45;;;;;;;;;;5110682;28;20467;-69
2023/12/28 12:34:06;;;;;;;3.42;3.13;;;;;;;;;;5131695;27;20130;-70
2023/12/28 12:36:32;;;;;;;3.17;2.97;;;;;;;;;;5114813;27;20845;-70
2023/12/28 12:38:57;;;;;;;2.00;1.90;;;;;;;;;;5131007;27;20027;-70
2023/12/28 12:41:23;;;;;;;2.40;2.30;;;;;;;;;;5097944;27;20027;-69
2023/12/28 12:43:49;;;;;;;3.40;3.20;;;;;;;;;;5098260;27;20043;-70
2023/12/28 12:46:15;;;;;;;2.15;2.05;;;;;;;;;;5097389;27;20995;-69
2023/12/28 12:48:41;;;;;;;4.57;3.25;;;;;;;;;;5113446;27;20031;-69
2023/12/28 12:51:08;;;;;;;3.40;3.20;;;;;;;;;;5113459;27;20469;-70
2023/12/28 12:53:34;;;;;;;2.97;2.65;;;;;;;;;;5094135;28;20059;-70
2023/12/28 12:56:00;;;;;;;3.10;2.75;;;;;;;;;;5111764;28;20143;-69
2023/12/28 12:58:27;;;;;;;2.67;2.58;;;;;;;;;;5076721;28;20481;-71
2023/12/28 13:00:53;;;;;;;2.35;2.25;;;;;;;;;;5112466;28;20031;-70
2023/12/28 13:03:20;;;;;;;3.03;2.90;;;;;;;;;;5111041;27;20047;-69
2023/12/28 13:05:46;;;;;;;2.33;2.22;;;;;;;;;;5132990;27;20034;-70
2023/12/28 13:08:12;;;;;;;2.42;2.33;;;;;;;;;;5133325;27;20049;-70
2023/12/28 13:10:38;;;;;;;2.72;2.53;;;;;;;;;;5114843;27;20145;-70
2023/12/28 13:13:06;;;;;;;2.28;2.17;;;;;;;;;;5114781;27;20031;-71
2023/12/28 13:15:32;;;;;;;2.58;2.47;;;;;;;;;;5114554;27;20066;-69
2023/12/28 13:17:58;;;;;;;3.30;3.10;;;;;;;;;;5133248;27;20088;-69
2023/12/28 13:20:24;;;;;;;3.22;2.97;;;;;;;;;;5097323;27;20076;-70
2023/12/28 13:22:50;;;;;;;2.05;1.95;;;;;;;;;;5114517;27;20535;-70
2023/12/28 13:25:16;;;;;;;2.83;2.63;;;;;;;;;;5132843;27;20023;-70
2023/12/28 13:27:42;;;;;;;3.15;2.95;;;;;;;;;;5114282;27;20043;-71
2023/12/28 13:30:08;;;;;;;4.35;4.05;;;;;;;;;;5133025;27;20050;-69
2023/12/28 13:32:35;;;;;;;2.38;2.28;;;;;;;;;;5132335;27;20055;-70
2023/12/28 13:35:01;;;;;;;2.40;2.30;;;;;;;;;;5114458;27;20042;-69
2023/12/28 13:37:29;;;;;;;2.55;2.45;;;;;;;;;;5097701;27;20043;-70
2023/12/28 13:39:56;;;;;;;3.03;2.83;;;;;;;;;;5132482;27;20130;-71
2023/12/28 13:42:22;;;;;;;2.50;2.40;;;;;;;;;;5114079;27;20027;-69
2023/12/28 13:44:48;;;;;;;2.58;2.38;;;;;;;;;;5113310;27;20478;-69
2023/12/28 13:47:13;;;;;;;2.35;2.25;;;;;;;;;;5097630;27;20045;-71
2023/12/28 13:49:40;;;;;;;3.10;2.53;;;;;;;;;;5132526;27;20039;-70
2023/12/28 13:52:05;;;;;;;2.95;2.38;;;;;;;;;;5113859;27;20039;-70
2023/12/28 13:54:31;;;;;;;2.70;2.60;;;;;;;;;;5132288;27;20035;-70
2023/12/28 13:56:57;;;;;;;1.70;1.70;;;;;;;;;;5132297;27;20095;-70
2023/12/28 13:59:23;;;;;;;2.45;2.35;;;;;;;;;;5132382;27;20517;-70
2023/12/28 14:01:49;;;;;;;3.38;3.17;;;;;;;;;;5113316;27;20031;-70
2023/12/28 14:04:15;;;;;;;2.03;1.92;;;;;;;;;;5132097;27;20080;-70
2023/12/28 14:06:41;;;;;;;1.48;1.48;;;;;;;;;;5079343;27;20042;-70
2023/12/28 14:09:08;;;;;;;3.42;2.30;;;;;;;;;;5114072;27;20507;-69
2023/12/28 14:11:34;;;;;;;2.42;2.33;;;;;;;;;;5096598;27;20035;-70
2023/12/28 14:14:00;;;;;;;2.70;2.50;;;;;;;;;;5132214;27;20073;-70
2023/12/28 14:16:29;;;;;;;2.42;2.33;;;;;;;;;;5097235;27;20050;-69
2023/12/28 14:18:55;;;;;;;2.17;2.05;;;;;;;;;;5079694;27;20060;-70
2023/12/28 14:21:21;;;;;;;2.55;2.42;;;;;;;;;;5132011;27;20065;-69
2023/12/28 14:23:47;;;;;;;4.03;3.40;;;;;;;;;;5096475;27;20074;-70
2023/12/28 14:26:14;;;;;;;2.00;1.90;;;;;;;;;;5096447;27;20630;-69
2023/12/28 14:28:43;;;;;;;2.40;2.30;;;;;;;;;;5079700;27;20095;-69
2023/12/28 14:31:12;;;;;;;4.28;3.75;;;;;;;;;;5113576;27;20039;-69
2023/12/28 14:33:39;;;;;;;5.90;2.65;;;;;;;;;;5131535;27;20046;-69
2023/12/28 14:36:31;;;;;;;2.60;2.50;;;;;;;;;;5131474;27;20046;-70
2023/12/28 14:39:05;;;;;;;2.20;2.13;;;;;;;;;;5108260;27;20558;-70